Time;durP1;ratioP1;P1;durP2;ratioP2;P2;SDS_P1;SDS_P2;PMS_P1;PMS_P2;Temp;Humidity;BMP_temperature;BMP_pressure;BME280_temperature;BME280_humidity;BME280_pressure;Samples;Min_cycle;Max_cycle;Signal;HPM_P1;HPM_P2
2022/01/14 00:01:01;;;;;;;4.35;2.78;;;;;;;1.57;100.00;103513.47;5069565;28;20135;-72
2022/01/14 00:03:28;;;;;;;5.40;3.67;;;;;;;1.56;100.00;103506.53;5064476;28;20052;-72
2022/01/14 00:05:55;;;;;;;2.28;1.95;;;;;;;1.59;100.00;103518.66;5068852;28;20052;-72
2022/01/14 00:08:22;;;;;;;3.58;2.08;;;;;;;1.59;100.00;103512.59;5067112;28;20047;-72
2022/01/14 00:10:50;;;;;;;7.43;3.50;;;;;;;1.58;100.00;103499.66;5077357;28;20235;-72
2022/01/14 00:13:41;;;;;;;6.15;2.90;;;;;;;1.58;100.00;103495.31;5075190;28;20510;-72
2022/01/14 00:16:08;;;;;;;11.93;3.43;;;;;;;1.57;100.00;103498.75;5077157;28;20047;-72
2022/01/14 00:18:35;;;;;;;4.45;3.15;;;;;;;1.59;100.00;103495.34;5069908;28;20048;-72
2022/01/14 00:21:02;;;;;;;7.10;3.00;;;;;;;1.61;100.00;103496.19;5070400;28;20060;-74
2022/01/14 00:23:33;;;;;;;9.75;3.17;;;;;;;1.58;100.00;103491.03;5069951;28;20044;-72
2022/01/14 00:31:49;;;;;;;6.75;2.85;;;;;;;1.58;100.00;103494.47;5076169;28;20147;-72
2022/01/14 00:34:17;;;;;;;2.35;2.15;;;;;;;1.54;100.00;103492.72;5077131;28;20054;-73
2022/01/14 00:36:44;;;;;;;5.22;3.55;;;;;;;1.56;100.00;103491.00;5083502;28;20101;-72
2022/01/14 00:39:12;;;;;;;2.30;1.85;;;;;;;1.56;100.00;103486.66;5081103;28;20122;-72
2022/01/14 00:41:40;;;;;;;15.60;4.30;;;;;;;1.59;100.00;103491.88;5075829;28;20068;-74
2022/01/14 00:44:11;;;;;;;4.60;3.60;;;;;;;1.58;100.00;103498.78;5073552;28;20063;-73
2022/01/14 00:46:38;;;;;;;5.47;2.60;;;;;;;1.62;100.00;103503.09;5079855;28;20036;-71
2022/01/14 00:49:05;;;;;;;9.73;4.00;;;;;;;1.64;100.00;103501.38;5077453;28;20044;-73
2022/01/14 00:51:32;;;;;;;5.05;3.75;;;;;;;1.60;100.00;103496.19;5078778;28;20040;-72
2022/01/14 00:53:59;;;;;;;8.60;4.28;;;;;;;1.60;100.00;103484.09;5076688;28;20564;-72
2022/01/14 00:56:31;;;;;;;5.55;3.35;;;;;;;1.59;100.00;103487.56;5078113;28;20054;-72
2022/01/14 01:01:48;;;;;;;3.75;2.28;;;;;;;1.64;100.00;103485.84;5079353;28;20062;-72
2022/01/14 01:04:16;;;;;;;4.10;2.17;;;;;;;1.64;100.00;103479.81;5083305;28;20044;-71
2022/01/14 01:06:44;;;;;;;4.63;3.75;;;;;;;1.64;100.00;103470.28;5090861;28;20052;-72
2022/01/14 01:09:15;;;;;;;4.07;3.55;;;;;;;1.65;100.00;103472.03;5083582;28;20130;-75
2022/01/14 01:11:49;;;;;;;;;;;;;;;1.65;100.00;103479.78;5069378;28;20071;-73
2022/01/14 01:14:33;;;;;;;;;;;;;;;1.68;100.00;103476.34;5076157;28;19924;-72
2022/01/14 01:17:01;;;;;;;4.32;2.88;;;;;;;1.66;100.00;103484.13;5073067;28;19932;-71
2022/01/14 01:19:28;;;;;;;2.47;2.00;;;;;;;1.69;100.00;103473.72;5076012;28;20089;-72
2022/01/14 01:21:55;;;;;;;4.55;2.70;;;;;;;1.69;100.00;103470.28;5073623;28;20051;-71
2022/01/14 01:24:22;;;;;;;3.00;2.50;;;;;;;1.67;100.00;103470.31;5076007;28;20039;-71
2022/01/14 01:26:50;;;;;;;2.50;1.90;;;;;;;1.67;100.00;103465.13;5076934;28;20051;-73
2022/01/14 01:29:43;;;;;;;3.60;2.05;;;;;;;1.69;100.00;103459.94;5075123;28;20071;-72
2022/01/14 01:32:11;;;;;;;3.72;2.28;;;;;;;1.65;100.00;103455.59;5072892;28;20047;-73
2022/01/14 01:34:39;;;;;;;3.75;2.30;;;;;;;1.64;100.00;103452.16;5081095;28;20383;-73
2022/01/14 01:37:06;;;;;;;2.75;2.42;;;;;;;1.69;100.00;103450.41;5090705;28;20040;-72
2022/01/14 01:39:35;;;;;;;5.32;3.45;;;;;;;1.71;100.00;103459.06;5095583;28;20036;-72
2022/01/14 01:42:04;;;;;;;4.38;2.72;;;;;;;1.76;100.00;103457.34;5090557;28;20065;-71
2022/01/14 01:44:33;;;;;;;3.90;2.17;;;;;;;1.79;100.00;103453.88;5074907;28;20075;-71
2022/01/14 01:46:59;;;;;;;4.75;3.55;;;;;;;1.78;100.00;103449.56;5067955;28;20078;-72
2022/01/14 01:49:29;;;;;;;33.78;3.53;;;;;;;1.78;100.00;103454.75;5076609;28;20051;-72
2022/01/14 01:51:56;;;;;;;4.80;2.65;;;;;;;1.73;100.00;103459.94;5074590;28;20067;-71
2022/01/14 01:54:24;;;;;;;2.92;2.08;;;;;;;1.81;100.00;103452.13;5074325;28;20098;-72
2022/01/14 01:56:51;;;;;;;3.90;2.15;;;;;;;1.82;100.00;103446.09;5081785;28;20055;-71
2022/01/14 01:59:18;;;;;;;2.63;2.13;;;;;;;1.83;100.00;103455.59;5071298;28;20056;-71
2022/01/14 02:01:45;;;;;;;5.65;3.47;;;;;;;1.78;100.00;103452.16;5072615;28;20043;-70
2022/01/14 02:04:11;;;;;;;5.25;2.78;;;;;;;1.76;100.00;103447.00;5067656;28;20063;-72
2022/01/14 02:06:40;;;;;;;17.98;3.75;;;;;;;1.80;100.00;103450.44;5070054;28;20055;-71
2022/01/14 02:09:08;;;;;;;5.22;3.63;;;;;;;1.79;100.00;103444.38;5070374;28;20052;-72
2022/01/14 02:11:35;;;;;;;6.45;2.90;;;;;;;1.74;100.00;103435.75;5066717;28;20052;-71
2022/01/14 02:14:11;;;;;;;23.45;5.95;;;;;;;1.72;100.00;103440.06;5066362;28;20048;-73
2022/01/14 02:16:59;;;;;;;4.72;2.20;;;;;;;1.76;100.00;103439.22;5071172;28;20050;-71
2022/01/14 02:19:29;;;;;;;5.70;3.50;;;;;;;1.72;100.00;103437.47;5069655;28;20047;-72
2022/01/14 02:22:11;;;;;;;6.78;3.15;;;;;;;1.76;100.00;103444.41;5073777;28;20064;-74
2022/01/14 02:25:03;;;;;;;6.85;3.00;;;;;;;1.80;100.00;103446.09;5077733;28;20044;-73
2022/01/14 02:27:30;;;;;;;4.45;3.38;;;;;;;1.80;100.00;103435.75;5069522;28;20040;-72
2022/01/14 02:29:57;;;;;;;6.07;3.33;;;;;;;1.84;100.00;103427.13;5073071;28;20039;-72
2022/01/14 02:32:23;;;;;;;9.43;4.35;;;;;;;1.85;100.00;103428.81;5071719;28;20047;-71
2022/01/14 02:34:50;;;;;;;3.17;2.40;;;;;;;1.87;100.00;103434.88;5069423;28;20059;-72
2022/01/14 02:37:20;;;;;;;5.60;2.58;;;;;;;1.82;100.00;103433.13;5067467;28;20586;-73
2022/01/14 02:39:47;;;;;;;4.40;2.97;;;;;;;1.80;100.00;103425.38;5068501;28;20222;-73
2022/01/14 02:42:14;;;;;;;4.70;3.30;;;;;;;1.82;100.00;103426.25;5069845;28;20047;-72
2022/01/14 02:44:41;;;;;;;4.45;2.80;;;;;;;1.84;100.00;103431.41;5071738;28;20788;-73
2022/01/14 02:47:08;;;;;;;5.82;2.83;;;;;;;1.83;100.00;103424.50;5068281;28;20109;-73
2022/01/14 02:49:37;;;;;;;13.40;4.30;;;;;;;1.79;100.00;103427.97;5067545;28;20040;-74
2022/01/14 02:52:05;;;;;;;33.10;3.75;;;;;;;1.78;100.00;103424.50;5064508;28;20048;-71
2022/01/14 02:54:40;;;;;;;5.88;3.10;;;;;;;1.81;100.00;103426.22;5070900;28;20040;-72
2022/01/14 02:57:08;;;;;;;6.10;2.45;;;;;;;1.85;100.00;103423.63;5067854;28;20050;-77
2022/01/14 02:59:36;;;;;;;13.32;3.35;;;;;;;1.83;100.00;103415.03;5066876;28;20039;-72
2022/01/14 03:02:03;;;;;;;4.47;2.33;;;;;;;1.72;100.00;103406.38;5070396;28;20093;-73
2022/01/14 03:04:31;;;;;;;4.65;3.38;;;;;;;1.71;100.00;103407.25;5072592;28;20051;-73
2022/01/14 03:06:57;;;;;;;2.47;2.00;;;;;;;1.72;100.00;103400.34;5078362;28;20040;-72
2022/01/14 03:09:24;;;;;;;9.50;2.22;;;;;;;1.70;100.00;103402.91;5065468;28;20047;-72
2022/01/14 03:11:54;;;;;;;5.35;2.33;;;;;;;1.79;100.00;103405.50;5077633;28;20055;-72
2022/01/14 03:14:23;;;;;;;3.90;2.72;;;;;;;1.75;100.00;103398.63;5079636;28;20048;-74
2022/01/14 03:16:50;;;;;;;5.25;2.20;;;;;;;1.73;100.00;103408.13;5079885;28;20040;-73
2022/01/14 03:19:20;;;;;;;4.13;3.13;;;;;;;1.80;100.00;103406.38;5078060;28;20050;-72
2022/01/14 03:21:50;;;;;;;3.10;2.65;;;;;;;1.79;100.00;103402.91;5064812;28;20142;-72
2022/01/14 03:24:20;;;;;;;3.30;2.20;;;;;;;1.75;100.00;103403.81;5069414;28;20048;-72
2022/01/14 03:26:48;;;;;;;4.00;2.05;;;;;;;1.77;100.00;103393.44;5066687;28;20051;-72
2022/01/14 03:29:18;;;;;;;3.45;2.70;;;;;;;1.74;100.00;103396.88;5068551;28;20048;-72
2022/01/14 03:31:45;;;;;;;2.20;1.73;;;;;;;1.72;100.00;103392.59;5069465;28;20040;-72
2022/01/14 03:34:12;;;;;;;8.27;2.85;;;;;;;1.69;100.00;103389.97;5071630;28;20042;-73
2022/01/14 03:36:39;;;;;;;1.98;1.70;;;;;;;1.70;100.00;103387.38;5082119;28;20452;-71
2022/01/14 03:39:06;;;;;;;3.33;2.45;;;;;;;1.68;100.00;103378.72;5070457;28;20107;-72
2022/01/14 03:41:32;;;;;;;4.28;2.15;;;;;;;1.65;100.00;103376.16;5083126;28;20078;-72
2022/01/14 03:43:59;;;;;;;3.83;2.42;;;;;;;1.67;100.00;103377.03;5088846;28;20042;-73
2022/01/14 03:46:27;;;;;;;2.13;1.83;;;;;;;1.70;100.00;103376.16;5090505;28;20047;-73
2022/01/14 03:48:54;;;;;;;2.58;2.25;;;;;;;1.69;100.00;103380.47;5066559;28;20047;-73
2022/01/14 03:51:20;;;;;;;2.35;1.83;;;;;;;1.64;100.00;103373.59;5069039;28;20048;-73
2022/01/14 03:53:48;;;;;;;2.38;2.08;;;;;;;1.65;100.00;103372.69;5058759;28;20048;-73
2022/01/14 03:56:15;;;;;;;29.42;3.28;;;;;;;1.65;100.00;103375.28;5063137;28;20059;-73
2022/01/14 03:58:43;;;;;;;5.85;2.80;;;;;;;1.68;100.00;103378.72;5064885;28;20134;-72
2022/01/14 04:01:11;;;;;;;3.70;2.22;;;;;;;1.69;100.00;103382.22;5065575;28;20048;-73
2022/01/14 04:03:40;;;;;;;21.58;4.80;;;;;;;1.69;100.00;103382.22;5069239;28;20075;-73
2022/01/14 04:06:06;;;;;;;2.70;1.85;;;;;;;1.71;100.00;103375.31;5067220;28;20044;-72
2022/01/14 04:08:34;;;;;;;5.53;2.70;;;;;;;1.68;100.00;103373.56;5067276;28;20058;-74
2022/01/14 04:11:02;;;;;;;5.57;2.67;;;;;;;1.74;100.00;103383.06;5067222;28;20051;-72
2022/01/14 04:13:39;;;;;;;11.07;2.90;;;;;;;1.66;100.00;103370.13;5069712;28;20369;-71
2022/01/14 04:16:06;;;;;;;6.45;3.28;;;;;;;1.66;100.00;103367.53;5067520;28;20067;-71
2022/01/14 04:18:32;;;;;;;3.65;2.75;;;;;;;1.61;100.00;103366.66;5066051;28;20092;-72
2022/01/14 04:21:01;;;;;;;28.13;3.17;;;;;;;1.62;100.00;103372.72;5066469;28;20141;-71
2022/01/14 04:23:28;;;;;;;16.60;3.58;;;;;;;1.62;100.00;103367.53;5064281;28;20514;-72
2022/01/14 04:25:55;;;;;;;3.75;2.53;;;;;;;1.58;100.00;103364.09;5066520;28;20122;-72
2022/01/14 04:28:24;;;;;;;11.52;3.50;;;;;;;1.61;100.00;103361.47;5064316;28;20040;-73
2022/01/14 04:30:54;;;;;;;3.10;2.78;;;;;;;1.61;100.00;103361.47;5065583;28;20054;-72
2022/01/14 04:33:21;;;;;;;4.75;3.08;;;;;;;1.63;100.00;103362.34;5067597;28;20510;-72
2022/01/14 04:35:48;;;;;;;2.20;1.80;;;;;;;1.64;100.00;103355.47;5065394;28;20043;-73
2022/01/14 04:38:16;;;;;;;26.27;4.25;;;;;;;1.61;100.00;103360.63;5065347;28;20048;-73
2022/01/14 04:40:43;;;;;;;10.70;3.38;;;;;;;1.58;100.00;103351.16;5068058;28;20123;-72
2022/01/14 04:43:12;;;;;;;4.25;2.47;;;;;;;1.61;100.00;103361.47;5065581;28;20073;-74
2022/01/14 04:45:54;;;;;;;4.50;2.47;;;;;;;1.62;100.00;103362.34;5066596;28;20048;-72
2022/01/14 04:48:21;;;;;;;4.47;2.20;;;;;;;1.58;100.00;103364.09;5060504;28;20097;-73
2022/01/14 04:50:47;;;;;;;5.75;3.55;;;;;;;1.59;100.00;103360.66;5068845;28;20125;-71
2022/01/14 04:53:15;;;;;;;2.15;1.73;;;;;;;1.58;100.00;103358.91;5066325;28;20095;-72
2022/01/14 04:55:43;;;;;;;3.15;2.45;;;;;;;1.50;100.00;103361.50;5067713;28;20063;-74
2022/01/14 04:58:10;;;;;;;3.35;2.50;;;;;;;1.51;100.00;103351.13;5067987;28;20421;-73
2022/01/14 05:00:38;;;;;;;3.80;2.78;;;;;;;1.55;100.00;103347.69;5062697;28;20036;-73
2022/01/14 05:03:05;;;;;;;7.30;2.95;;;;;;;1.54;100.00;103345.97;5065041;28;20044;-72
2022/01/14 05:05:34;;;;;;;4.18;2.75;;;;;;;1.57;100.00;103345.09;5066514;28;20040;-71
2022/01/14 05:08:01;;;;;;;2.47;2.15;;;;;;;1.58;100.00;103349.41;5062616;28;20054;-73
2022/01/14 05:10:47;;;;;;;1.98;1.60;;;;;;;1.56;100.00;103353.72;5075201;28;20054;-72
2022/01/14 05:13:13;;;;;;;7.38;3.33;;;;;;;1.54;100.00;103348.56;5070737;28;20119;-71
2022/01/14 05:15:40;;;;;;;6.53;2.47;;;;;;;1.56;100.00;103349.41;5077455;28;20051;-72
2022/01/14 05:18:07;;;;;;;1.98;1.40;;;;;;;1.56;100.00;103351.97;5082639;28;20044;-73
2022/01/14 05:20:33;;;;;;;4.82;2.90;;;;;;;1.55;100.00;103345.09;5074444;28;20048;-72
2022/01/14 05:23:00;;;;;;;21.20;2.65;;;;;;;1.59;100.00;103337.34;5070164;28;20051;-71
2022/01/14 05:25:27;;;;;;;10.25;3.33;;;;;;;1.61;100.00;103334.72;5073235;28;20052;-72
2022/01/14 05:27:55;;;;;;;4.25;2.58;;;;;;;1.59;100.00;103326.97;5072407;28;20147;-73
2022/01/14 05:30:21;;;;;;;6.97;2.97;;;;;;;1.63;100.00;103331.25;5067444;28;20059;-72
2022/01/14 05:32:51;;;;;;;5.75;3.47;;;;;;;1.64;100.00;103330.41;5068435;28;20068;-73
2022/01/14 05:35:20;;;;;;;3.22;2.28;;;;;;;1.63;100.00;103331.25;5068258;28;20483;-72
2022/01/14 05:37:46;;;;;;;8.50;2.38;;;;;;;1.60;100.00;103328.66;5065200;28;20044;-72
2022/01/14 05:40:14;;;;;;;12.02;2.22;;;;;;;1.60;100.00;103328.66;5080251;28;20075;-75
2022/01/14 05:42:42;;;;;;;7.43;3.80;;;;;;;1.55;100.00;103326.09;5075518;28;20118;-71
2022/01/14 05:45:12;;;;;;;4.43;2.88;;;;;;;1.55;100.00;103332.16;5073572;28;20045;-71
2022/01/14 05:47:39;;;;;;;8.52;2.65;;;;;;;1.53;100.00;103326.09;5075192;28;20068;-73
2022/01/14 05:50:08;;;;;;;4.80;3.05;;;;;;;1.53;100.00;103333.00;5079220;28;20047;-72
2022/01/14 05:52:35;;;;;;;15.65;4.40;;;;;;;1.52;100.00;103341.66;5083575;28;20040;-73
2022/01/14 05:55:02;;;;;;;6.13;2.00;;;;;;;1.54;100.00;103339.91;5073906;28;20056;-72
2022/01/14 05:57:30;;;;;;;19.90;4.65;;;;;;;1.52;100.00;103339.91;5078569;28;20101;-71
2022/01/14 05:59:57;;;;;;;4.63;3.10;;;;;;;1.56;100.00;103351.97;5077526;28;20044;-72
2022/01/14 06:02:24;;;;;;;4.85;2.58;;;;;;;1.53;100.00;103343.34;5080316;28;20028;-69
2022/01/14 06:04:51;;;;;;;3.20;2.25;;;;;;;1.54;100.00;103350.25;5074604;28;20046;-73
2022/01/14 06:07:18;;;;;;;6.28;3.88;;;;;;;1.55;100.00;103349.41;5087145;28;20048;-72
2022/01/14 06:09:44;;;;;;;3.70;2.08;;;;;;;1.57;100.00;103352.88;5075737;28;20047;-73
2022/01/14 06:12:11;;;;;;;5.63;2.55;;;;;;;1.58;100.00;103348.56;5081247;28;20044;-73
2022/01/14 06:14:38;;;;;;;3.53;3.20;;;;;;;1.54;100.00;103352.84;5078082;28;20097;-69
2022/01/14 06:17:05;;;;;;;4.78;3.08;;;;;;;1.55;100.00;103354.59;5082208;28;20122;-70
2022/01/14 06:19:33;;;;;;;3.35;2.55;;;;;;;1.52;100.00;103342.50;5091701;28;20054;-69
2022/01/14 06:22:00;;;;;;;5.72;2.75;;;;;;;1.55;100.00;103345.09;5099478;28;20044;-70
2022/01/14 06:24:26;;;;;;;4.82;3.53;;;;;;;1.54;100.00;103345.09;5078612;28;20048;-69
2022/01/14 06:26:53;;;;;;;4.28;2.47;;;;;;;1.55;100.00;103345.09;5076470;28;20040;-70
2022/01/14 06:29:20;;;;;;;4.90;3.75;;;;;;;1.59;100.00;103342.50;5063963;28;20047;-68
2022/01/14 06:31:46;;;;;;;3.85;2.28;;;;;;;1.58;100.00;103330.41;5078376;28;20047;-72
2022/01/14 06:34:14;;;;;;;5.72;2.97;;;;;;;1.55;100.00;103339.03;5075013;28;20047;-73
2022/01/14 06:36:42;;;;;;;4.32;3.28;;;;;;;1.54;100.00;103333.00;5073838;28;20080;-69
2022/01/14 06:39:09;;;;;;;1.77;1.63;;;;;;;1.52;100.00;103329.56;5081862;28;20048;-68
2022/01/14 06:41:37;;;;;;;4.18;2.47;;;;;;;1.46;100.00;103334.75;5075810;28;20036;-68
2022/01/14 06:44:06;;;;;;;3.65;2.97;;;;;;;1.51;100.00;103334.75;5080163;28;20398;-72
2022/01/14 06:46:33;;;;;;;6.35;3.80;;;;;;;1.53;100.00;103331.28;5074684;28;20040;-72
2022/01/14 06:48:59;;;;;;;4.25;2.55;;;;;;;1.53;100.00;103330.41;5073881;28;20185;-72
2022/01/14 06:51:26;;;;;;;3.42;1.73;;;;;;;1.52;100.00;103326.13;5069852;28;20044;-73
2022/01/14 06:53:54;;;;;;;3.55;2.63;;;;;;;1.47;100.00;103320.06;5073867;28;20075;-73
2022/01/14 06:56:20;;;;;;;8.57;3.10;;;;;;;1.50;100.00;103335.59;5076739;28;20036;-73
2022/01/14 06:58:47;;;;;;;4.03;2.42;;;;;;;1.50;100.00;103335.59;5076459;28;20052;-73
2022/01/14 07:01:14;;;;;;;3.25;2.72;;;;;;;1.47;100.00;103330.41;5069442;28;20434;-72
2022/01/14 07:03:40;;;;;;;3.53;1.55;;;;;;;1.43;100.00;103329.56;5078078;28;20122;-72
2022/01/14 07:06:07;;;;;;;3.63;1.98;;;;;;;1.43;100.00;103326.13;5065171;28;20101;-72
2022/01/14 07:08:33;;;;;;;18.70;4.93;;;;;;;1.37;100.00;103328.69;5074852;28;20040;-73
2022/01/14 07:11:02;;;;;;;4.85;2.88;;;;;;;1.32;100.00;103336.47;5075744;28;20064;-75
2022/01/14 07:13:29;;;;;;;3.78;2.58;;;;;;;1.36;100.00;103342.50;5075983;28;20183;-72
2022/01/14 07:15:55;;;;;;;4.22;2.20;;;;;;;1.41;100.00;103340.78;5080308;28;20086;-72
2022/01/14 07:18:22;;;;;;;4.53;2.50;;;;;;;1.40;100.00;103349.41;5075335;28;20044;-72
2022/01/14 07:20:48;;;;;;;9.25;2.67;;;;;;;1.40;100.00;103347.69;5072207;28;20052;-73
2022/01/14 07:23:16;;;;;;;15.45;3.53;;;;;;;1.40;100.00;103341.66;5078542;28;20115;-72
2022/01/14 07:25:43;;;;;;;3.20;2.17;;;;;;;1.40;100.00;103346.84;5073908;28;20044;-74
2022/01/14 07:28:11;;;;;;;2.55;1.58;;;;;;;1.40;100.00;103344.25;5078134;28;20039;-72
2022/01/14 07:30:38;;;;;;;3.80;2.72;;;;;;;1.40;100.00;103345.09;5076619;28;20044;-73
2022/01/14 07:33:04;;;;;;;5.80;2.50;;;;;;;1.31;100.00;103346.84;5073674;28;20482;-72
2022/01/14 07:35:31;;;;;;;4.43;3.13;;;;;;;1.29;100.00;103335.59;5074832;28;20040;-75
2022/01/14 07:37:58;;;;;;;2.88;2.22;;;;;;;1.27;100.00;103333.03;5080141;28;20040;-72
2022/01/14 07:40:24;;;;;;;6.85;3.63;;;;;;;1.28;100.00;103333.88;5071767;28;20051;-73
2022/01/14 07:42:51;;;;;;;3.30;2.58;;;;;;;1.25;100.00;103336.47;5080866;28;20060;-74
2022/01/14 07:45:20;;;;;;;8.00;3.20;;;;;;;1.24;100.00;103337.34;5074849;28;20032;-71
2022/01/14 07:47:47;;;;;;;26.05;3.92;;;;;;;1.21;100.00;103334.75;5078208;28;20071;-72
2022/01/14 07:50:13;;;;;;;4.38;3.33;;;;;;;1.23;100.00;103340.78;5076152;28;20048;-73
2022/01/14 07:52:40;;;;;;;6.80;2.67;;;;;;;1.25;100.00;103329.56;5074528;28;20068;-73
2022/01/14 07:55:08;;;;;;;18.55;2.20;;;;;;;1.19;100.00;103324.41;5065877;28;20115;-72
2022/01/14 07:57:34;;;;;;;7.28;2.00;;;;;;;1.23;100.00;103346.81;5074152;28;20036;-72
2022/01/14 08:00:03;;;;;;;2.95;1.90;;;;;;;1.21;100.00;103338.22;5071333;28;20052;-72
2022/01/14 08:02:31;;;;;;;2.83;1.67;;;;;;;1.23;100.00;103338.19;5074198;28;20047;-71
2022/01/14 08:04:57;;;;;;;22.50;3.05;;;;;;;1.18;100.00;103335.63;5078527;28;20060;-73
2022/01/14 08:07:25;;;;;;;3.53;2.28;;;;;;;1.23;100.00;103333.03;5077553;28;20068;-71
2022/01/14 08:09:52;;;;;;;3.05;1.98;;;;;;;1.26;100.00;103335.63;5079468;28;20078;-72
2022/01/14 08:12:18;;;;;;;5.65;3.53;;;;;;;1.30;100.00;103322.69;5074593;28;20045;-71
2022/01/14 08:14:45;;;;;;;4.13;2.67;;;;;;;1.32;100.00;103341.66;5081340;28;20090;-72
2022/01/14 08:17:15;;;;;;;3.25;1.70;;;;;;;1.36;100.00;103337.31;5071067;28;20064;-72
2022/01/14 08:19:43;;;;;;;3.50;3.08;;;;;;;1.37;100.00;103321.81;5071996;28;20049;-73
2022/01/14 08:22:09;;;;;;;5.53;3.05;;;;;;;1.38;100.00;103314.88;5070871;28;20531;-72
2022/01/14 08:24:37;;;;;;;2.10;1.90;;;;;;;1.40;100.00;103339.06;5077329;28;20048;-72
2022/01/14 08:27:06;;;;;;;3.42;2.53;;;;;;;1.44;100.00;103341.66;5077897;28;20136;-72
2022/01/14 08:29:33;;;;;;;8.57;3.80;;;;;;;1.42;100.00;103345.13;5076171;28;20064;-71
2022/01/14 08:32:00;;;;;;;6.32;2.50;;;;;;;1.46;100.00;103352.00;5065577;28;20048;-72
2022/01/14 08:34:28;;;;;;;6.22;2.88;;;;;;;1.49;100.00;103341.66;5075942;28;20040;-73
2022/01/14 08:36:56;;;;;;;3.67;3.13;;;;;;;1.50;100.00;103345.97;5071577;28;20044;-72
2022/01/14 08:39:23;;;;;;;5.60;3.30;;;;;;;1.53;100.00;103335.59;5075041;28;20044;-71
2022/01/14 08:41:50;;;;;;;2.88;2.35;;;;;;;1.60;100.00;103331.25;5076422;28;20048;-73
2022/01/14 08:44:16;;;;;;;18.80;3.90;;;;;;;1.68;100.00;103326.91;5074685;28;20036;-72
2022/01/14 08:46:43;;;;;;;3.85;3.30;;;;;;;1.69;100.00;103318.28;5073581;28;20665;-72
2022/01/14 08:49:10;;;;;;;5.68;4.05;;;;;;;1.65;100.00;103316.59;5078621;28;20068;-72
2022/01/14 08:51:37;;;;;;;10.05;3.78;;;;;;;1.74;100.00;103319.16;5078828;28;20153;-72
2022/01/14 08:54:07;;;;;;;3.88;3.00;;;;;;;1.82;100.00;103326.91;5101836;28;20119;-72
2022/01/14 08:56:34;;;;;;;7.43;4.05;;;;;;;1.85;100.00;103314.78;5103040;28;20099;-72
2022/01/14 08:59:00;;;;;;;20.08;4.85;;;;;;;1.89;100.00;103319.13;5101164;28;20048;-72
2022/01/14 09:01:27;;;;;;;5.88;4.30;;;;;;;1.90;100.00;103338.97;5090116;28;20047;-72
2022/01/14 09:03:54;;;;;;;6.65;3.92;;;;;;;1.93;100.00;103354.50;5085290;28;20036;-72
2022/01/14 09:06:21;;;;;;;5.75;2.83;;;;;;;2.01;100.00;103334.59;5076914;28;20127;-71
2022/01/14 09:08:47;;;;;;;16.95;4.47;;;;;;;1.98;100.00;103338.94;5069971;28;20060;-74
2022/01/14 09:11:16;;;;;;;9.43;4.07;;;;;;;2.01;100.00;103315.63;5077862;28;20127;-74
2022/01/14 09:13:44;;;;;;;8.82;4.82;;;;;;;2.12;100.00;103324.22;5083562;28;20036;-71
2022/01/14 09:16:11;;;;;;;8.45;5.10;;;;;;;2.22;100.00;103336.25;5074497;28;20047;-73
2022/01/14 09:18:37;;;;;;;9.23;5.97;;;;;;;2.27;99.99;103345.75;5079237;28;20035;-75
2022/01/14 09:21:04;;;;;;;14.80;5.65;;;;;;;2.23;99.83;103359.63;5078427;28;20086;-72
2022/01/14 09:23:33;;;;;;;7.43;4.32;;;;;;;2.38;100.00;103354.38;5079603;28;20040;-72
2022/01/14 09:26:00;;;;;;;15.43;9.30;;;;;;;2.51;100.00;103359.50;5074884;28;20044;-71
2022/01/14 09:28:28;;;;;;;6.10;3.42;;;;;;;2.51;99.74;103346.53;5078257;28;20047;-73
2022/01/14 09:30:55;;;;;;;7.10;4.82;;;;;;;2.49;99.61;103363.81;5076946;28;20029;-72
2022/01/14 09:33:21;;;;;;;32.95;2.90;;;;;;;2.45;99.59;103366.44;5077009;28;20044;-72
2022/01/14 09:35:48;;;;;;;7.75;4.32;;;;;;;2.49;99.28;103365.56;5083362;28;20467;-74
2022/01/14 09:38:14;;;;;;;14.20;5.38;;;;;;;2.46;98.97;103352.59;5077120;28;20111;-71
2022/01/14 09:40:44;;;;;;;47.40;6.57;;;;;;;2.54;99.12;103374.19;5080165;28;20040;-72
2022/01/14 09:43:13;;;;;;;5.60;3.67;;;;;;;2.56;98.92;103367.25;5077440;28;20044;-75
2022/01/14 09:45:41;;;;;;;10.57;5.75;;;;;;;2.65;98.98;103380.19;5072869;28;20136;-74
2022/01/14 09:48:08;;;;;;;8.98;4.30;;;;;;;2.55;98.46;103373.31;5070465;28;20036;-72
2022/01/14 09:50:34;;;;;;;7.35;4.35;;;;;;;2.52;99.29;103373.31;5079544;28;20537;-73
2022/01/14 09:53:01;;;;;;;9.82;4.38;;;;;;;2.67;99.50;103378.41;5079076;28;20091;-75
2022/01/14 09:55:27;;;;;;;10.52;4.68;;;;;;;2.76;99.75;103374.06;5077414;28;20078;-73
2022/01/14 09:57:54;;;;;;;8.45;4.90;;;;;;;2.77;99.41;103369.72;5080397;28;20049;-74
2022/01/14 10:00:21;;;;;;;7.75;3.65;;;;;;;2.76;98.78;103386.16;5080206;28;20246;-72
2022/01/14 10:02:50;;;;;;;10.82;5.40;;;;;;;2.81;98.94;103380.06;5081383;28;20071;-73
2022/01/14 10:05:34;;;;;;;13.50;4.57;;;;;;;2.86;98.93;103385.25;5077532;28;20036;-74
2022/01/14 10:08:13;;;;;;;13.10;4.57;;;;;;;2.96;99.01;103381.72;5077440;28;20040;-73
2022/01/14 10:10:45;;;;;;;10.20;5.25;;;;;;;2.95;98.90;103377.41;5077504;28;20127;-72
2022/01/14 10:13:13;;;;;;;6.90;4.40;;;;;;;2.99;98.60;103371.34;5080495;28;20059;-72
2022/01/14 10:15:45;;;;;;;8.40;4.90;;;;;;;3.03;98.33;103383.41;5077650;28;20048;-73
2022/01/14 10:18:15;;;;;;;19.42;6.53;;;;;;;3.00;98.42;103379.09;5071272;28;20052;-75
2022/01/14 10:20:44;;;;;;;20.75;6.97;;;;;;;2.99;98.71;103384.31;5075841;28;20052;-73
2022/01/14 10:23:12;;;;;;;10.30;5.13;;;;;;;2.97;98.11;103378.25;5081397;28;20044;-73
2022/01/14 10:25:39;;;;;;;5.35;4.82;;;;;;;3.07;98.27;103370.41;5077399;28;20036;-71
2022/01/14 10:28:16;;;;;;;8.35;5.32;;;;;;;3.21;97.45;103379.81;5079423;28;20052;-73
2022/01/14 10:30:46;;;;;;;7.10;4.65;;;;;;;3.24;97.12;103384.13;5076891;28;20051;-73
2022/01/14 10:33:12;;;;;;;31.48;5.25;;;;;;;3.28;96.31;103376.31;5080998;28;20040;-72
2022/01/14 10:35:42;;;;;;;9.40;5.57;;;;;;;3.22;97.05;103373.75;5070493;28;20036;-72
2022/01/14 10:38:11;;;;;;;8.25;5.65;;;;;;;3.20;96.82;103378.09;5078883;28;20071;-73
2022/01/14 10:40:43;;;;;;;12.32;4.93;;;;;;;3.19;97.52;103358.19;5071659;28;20139;-73
2022/01/14 10:43:12;;;;;;;18.00;5.95;;;;;;;3.16;97.92;103376.38;5078457;28;20040;-73
2022/01/14 10:45:43;;;;;;;16.67;5.53;;;;;;;3.34;97.67;103355.47;5078205;28;20046;-72
2022/01/14 10:48:11;;;;;;;10.50;6.18;;;;;;;3.46;97.49;103357.97;5075466;28;20052;-73
2022/01/14 10:50:39;;;;;;;9.43;5.50;;;;;;;3.50;96.70;103346.66;5080581;28;20133;-73
2022/01/14 10:53:13;;;;;;;14.70;4.93;;;;;;;3.54;96.49;103337.09;5074547;28;20046;-72
2022/01/14 10:55:41;;;;;;;8.13;5.90;;;;;;;3.59;97.04;103337.94;5080949;28;20040;-73
2022/01/14 10:58:12;;;;;;;7.75;6.05;;;;;;;3.57;97.40;103330.13;5072266;28;21049;-72
2022/01/14 11:00:40;;;;;;;9.63;5.45;;;;;;;3.59;96.52;103333.59;5081852;28;20129;-74
2022/01/14 11:03:07;;;;;;;10.70;5.55;;;;;;;3.72;97.09;103323.94;5078370;28;20040;-72
2022/01/14 11:05:35;;;;;;;15.30;7.68;;;;;;;3.72;96.64;103311.81;5080604;28;20052;-73
2022/01/14 11:08:02;;;;;;;21.73;8.25;;;;;;;3.68;97.22;103312.72;5076184;28;20044;-74
2022/01/14 11:10:33;;;;;;;15.23;7.95;;;;;;;3.74;96.71;103320.44;5077531;28;20044;-72
2022/01/14 11:13:01;;;;;;;11.95;5.05;;;;;;;3.70;97.12;103316.16;5078507;28;20121;-72
2022/01/14 11:15:29;;;;;;;21.08;7.18;;;;;;;3.68;97.25;103330.91;5075841;28;20556;-71
2022/01/14 11:17:59;;;;;;;19.92;8.27;;;;;;;3.59;97.78;103325.78;5074151;28;20122;-72
2022/01/14 11:20:31;;;;;;;13.77;7.88;;;;;;;3.53;97.96;103331.06;5077331;28;20144;-75
2022/01/14 11:23:15;;;;;;;26.67;8.95;;;;;;;3.65;98.23;103323.13;5081095;28;20036;-73
2022/01/14 11:25:51;;;;;;;12.30;5.72;;;;;;;3.72;97.90;103326.53;5077639;28;20045;-74
2022/01/14 11:28:21;;;;;;;16.25;8.73;;;;;;;3.79;98.33;103322.97;5072699;28;20044;-73
2022/01/14 11:30:47;;;;;;;10.52;6.97;;;;;;;3.80;97.50;103336.00;5080869;28;20063;-73
2022/01/14 11:33:15;;;;;;;12.73;7.00;;;;;;;3.88;97.87;103322.88;5087661;28;20128;-74
2022/01/14 11:35:54;;;;;;;14.48;7.65;;;;;;;4.02;97.41;103330.50;5092413;28;20042;-73
2022/01/14 11:38:37;;;;;;;12.13;7.55;;;;;;;4.14;96.67;103322.59;5088208;28;20067;-72